Hovedside
METAR-TAF:

METAR-TAF

Lufthavner :

Yap, Mikronesia

breddegrad: 09-29N, lengdegrad: 138-05E, høyde over havet: 28 m

Gjeldene værobservasjon

Denne rapporten ble laget for 55 minutter siden, klokken 14:50 UTC
Vind 9 kt fra Nord
Temperatur 27°C
Luftfuktighet 79%
Trykk 1010 hPa
Sikt: 19.3 km
Få skyer i en høyde av 1600 ft
Spredte skyer i en høyde av 13000 ft
Brutte skyer i en høyde av 30000 ft

METAR: PTYA 201450Z 36009KT 12SM FEW016 SCT130 BKN300 27/23 A2982 RMK SLP100 8/171 T02680230 402940257 58008

Tid: 01:45 (15:45 UTC)

Varsel

Denne rapporten ble laget for 4 timer og 20 minutter siden, klokken 11:25 UTC
Varsel gyldig fra 20. klokken 12 UTC til 21. klokken 12 UTC
Vind 8 kt fra Øst-nordøst
Sikt: 10 km
Få skyer i en høyde av 1600 ft
Brutte skyer i en høyde av 13000 ft
regnbyger i nærheten

TAF: PTYA 201125Z 2012/2112 07008KT P6SM VCSH FEW016 BKN130

Værobservasjoner og værvarsel for over 4000 flyplasser (METAR- og TAF-rapporter).

Tilgjengelige stasjoner er representert av de røde og gule prikkene på kartet.

Hold musepekeren over prikken for å se navnet på stasjonen.

Klikk så for å se værobservasjoner og -varsler.

For å forandre kartet kan du klikke på den grønne knappen med svart kryss for å zoome inn, på den grønne knappen med strek for å zoome ut, eller på de grønne pilene for å se tilstøtende kart.


METAR-TAF: